ESSAESOW

Guest
Details From ESSA - Stockholm Arlanda
To ESOW - Vasteras
Flight Number -
Tags generated
Created
Modified
Stats Distance 40 nm / 74 km
Max Altitude 100 ft / 30 m
Waypoints 3
Social Downloads 0
Likes 0
Share VATSIM

Download

Looking for another format? Having issues loading an existing format? Contact us
Advertisement - Login to hide

Notes

Basic altitude profile: - Ascent Rate: 2500ft/min - Ascent Speed: 250kts - Cruise Altitude: 35000ft - Cruise Speed: 420kts - Descent Rate: 1500ft/min - Descent Speed: 250kts Options: - Use NATs: yes - Use PACOTS: yes - Use low airways: yes - Use high airways: yes

Route

ESSA ARS ESOW

ID Type Via Altitude Latitude Longitude Leg Dist Tot Dist Heading (true) Name
O ESSA APT - 0 ft / 0 m 59.65014˚ 17.94363˚ - 0 nm - Stockholm Arlanda
ARS VOR - 100 ft / 30 m 59.58619˚ 16.65039˚ 39 nm 39 nm 265° / 264° AROS VOR-DME
O ESOW APT - 0 ft / 0 m 59.58983˚ 16.63386˚ 0 nm 40 nm 293° / 293° Vasteras

Altitude Profile

Advertisement - Login to hide

ESSA

Details ICAO ESSA (ARN)
Name Stockholm Arlanda
Region Sweden
Timezone Europe/Stockholm (UTC+1.0)
Stats Elevation 137 ft / 42 m (AMSL)
Location 59.650140° 17.943628°
Runways 3
Magnetic Variation 6.100° E

METAR

ESSA 121020Z 36010KT 3200 -SN OVC006 00/00 Q0986 R01L/520273 R01R/SNOCLO R08/520271 TEMPO 1500 SN

Decode

TAF

TAF ESSA 120530Z 1206/1306 02008KT 5000 -SN BKN004 TEMPO 1206/1216 1200 SN VV010 BECMG 1216/1218 SCT020

Decode

Departure Runways

ID Width Length Bearing (true) Bearing (mag) Surface Threshold Offset Overrun Length
01L 148 ft / 45 m 10,812 ft / 3,296 m 10.35° 4.25° Concrete 0 ft / 0 m 0 ft / 0 m
01R 148 ft / 45 m 8,188 ft / 2,496 m 10.38° 4.28° Asphalt 0 ft / 0 m 0 ft / 0 m
08 148 ft / 45 m 8,178 ft / 2,493 m 75.83° 69.73° Concrete 0 ft / 0 m 0 ft / 0 m
19L 148 ft / 45 m 8,188 ft / 2,496 m 190.39° 184.29° Asphalt 0 ft / 0 m 0 ft / 0 m
19R 148 ft / 45 m 10,812 ft / 3,296 m 190.36° 184.26° Concrete 0 ft / 0 m 0 ft / 0 m
26 148 ft / 45 m 8,178 ft / 2,493 m 255.87° 249.77° Concrete 0 ft / 0 m 0 ft / 0 m

ESOW

Details ICAO ESOW (VST)
Name Vasteras
Region Sweden
Timezone Europe/Stockholm (UTC+1.0)
Stats Elevation 21 ft / 6 m (AMSL)
Location 59.589829° 16.633862°
Runways 1
Magnetic Variation 5.578° E

METAR

ESOW 121020Z 01015KT 3400 -SN FEW007 SCT009 BKN011 01/M01 Q0987 R01/910316

Decode

TAF

Not found

Destination Runways

ID Width Length Bearing (true) Bearing (mag) Surface Threshold Offset Overrun Length
01 151 ft / 46 m 8,454 ft / 2,577 m 11.62° 6.04° Asphalt 1,309 ft / 399 m 0 ft / 0 m
19 151 ft / 46 m 8,454 ft / 2,577 m 191.63° 186.05° Asphalt 0 ft / 0 m 0 ft / 0 m

Approach Navaids

Runway Type Ident Frequency Range Bearing (true) Bearing (mag) Slope Elevation
19 Localiser SCD 108.30 MHz 18 nm / 33 km 191.65° 186.07° - 21 ft / 6 m (AMSL)
19 Glidescope SCD 108.30 MHz 10 nm / 19 km 191.63° 186.05° 3.25° 21 ft / 6 m (AMSL)
19 DME SCD 108.30 MHz 18 nm / 33 km - - - 38 ft / 12 m (AMSL)

Popular Alternatives